Casablanca, Morocco
Current Conditions -  °F | °C
As of 7:00 AM on Wednesday 22 Oct 2014 (Local Time) from GMMC Reporting Station
Moderate Fog Moderate Fog  
Wind Chill: 64°   Ceiling: Unl
Heat Index: 64°   Visibility: 0.5mi
Dew Point: 64°   Wind: 0mph
Humidity: 100%   Direction: NA
Pressure: 30.09"   Gusts: NA
Location:  33.6°N, 7.62°W
Report Text: GMMC 220600Z 00000KT 0800 FG NSC 18/18 Q1019
Loading
Personal Weather Stations






























Interactive Weather Map
Tropical Storm Tracking
New forecast layout! Learn more

10-Day Weather Forecast

Advertisements
Track Severe Weather on mobile